sensor_id;sensor_type;location;lat;lon;timestamp;pressure;altitude;pressure_sealevel;temperature;humidity
3697;BME280;60662;48.810;8.872;2023-12-14T09:10:04;96387.66;;;5.18;100.00
3697;BME280;60662;48.810;8.872;2023-12-14T09:30:28;96427.94;;;5.60;100.00
3697;BME280;60662;48.810;8.872;2023-12-14T09:31:29;96429.75;;;5.56;100.00
3697;BME280;60662;48.810;8.872;2023-12-14T09:37:18;96438.78;;;5.72;100.00
3697;BME280;60662;48.810;8.872;2023-12-14T09:38:20;96448.97;;;5.80;100.00
3697;BME280;60662;48.810;8.872;2023-12-14T09:44:31;96443.59;;;5.86;100.00
3697;BME280;60662;48.810;8.872;2023-12-14T09:45:33;96461.13;;;6.08;100.00
3697;BME280;60662;48.810;8.872;2023-12-14T09:52:24;96456.16;;;6.02;100.00
3697;BME280;60662;48.810;8.872;2023-12-14T09:53:25;96458.84;;;5.97;100.00
3697;BME280;60662;48.810;8.872;2023-12-14T09:54:28;96462.13;;;6.04;100.00
3697;BME280;60662;48.810;8.872;2023-12-14T10:00:33;96459.00;;;6.23;100.00
3697;BME280;60662;48.810;8.872;2023-12-14T10:01:35;96468.66;;;6.46;100.00
3697;BME280;60662;48.810;8.872;2023-12-14T10:02:37;96466.31;;;6.65;100.00
3697;BME280;60662;48.810;8.872;2023-12-14T10:03:38;96468.06;;;6.64;100.00
3697;BME280;60662;48.810;8.872;2023-12-14T10:04:40;96469.66;;;6.95;100.00
3697;BME280;60662;48.810;8.872;2023-12-14T10:05:41;96468.94;;;7.17;100.00
3697;BME280;60662;48.810;8.872;2023-12-14T10:06:45;96475.72;;;7.21;100.00
3697;BME280;60662;48.810;8.872;2023-12-14T10:07:47;96470.66;;;7.18;100.00
3697;BME280;60662;48.810;8.872;2023-12-14T10:08:54;96478.78;;;7.07;100.00
3697;BME280;60662;48.810;8.872;2023-12-14T10:10:12;96477.41;;;6.97;100.00
3697;BME280;60662;48.810;8.872;2023-12-14T10:11:15;96475.63;;;6.99;100.00
3697;BME280;60662;48.810;8.872;2023-12-14T10:12:17;96481.31;;;7.10;100.00
3697;BME280;60662;48.810;8.872;2023-12-14T10:13:23;96487.19;;;7.15;100.00
3697;BME280;60662;48.810;8.872;2023-12-14T10:14:37;96488.78;;;7.19;100.00
3697;BME280;60662;48.810;8.872;2023-12-14T10:15:43;96484.72;;;7.12;100.00
3697;BME280;60662;48.810;8.872;2023-12-14T10:16:45;96492.94;;;6.98;100.00
3697;BME280;60662;48.810;8.872;2023-12-14T10:17:47;96491.63;;;6.85;100.00
3697;BME280;60662;48.810;8.872;2023-12-14T10:18:55;96491.00;;;6.78;100.00
3697;BME280;60662;48.810;8.872;2023-12-14T10:28:14;96502.69;;;6.63;100.00
3697;BME280;60662;48.810;8.872;2023-12-14T10:34:23;96517.31;;;6.66;100.00
3697;BME280;60662;48.810;8.872;2023-12-14T10:41:33;96516.00;;;6.52;100.00
3697;BME280;60662;48.810;8.872;2023-12-14T10:50:44;96517.47;;;6.33;100.00
3697;BME280;60662;48.810;8.872;2023-12-14T10:55:01;96514.69;;;6.67;100.00
3697;BME280;60662;48.810;8.872;2023-12-14T10:56:05;96523.28;;;6.69;100.00
3697;BME280;60662;48.810;8.872;2023-12-14T10:57:12;96510.25;;;6.71;100.00
3697;BME280;60662;48.810;8.872;2023-12-14T10:58:13;96515.56;;;6.66;100.00
3697;BME280;60662;48.810;8.872;2023-12-14T10:59:15;96526.75;;;6.68;100.00
3697;BME280;60662;48.810;8.872;2023-12-14T11:00:18;96531.19;;;6.65;100.00
3697;BME280;60662;48.810;8.872;2023-12-14T11:12:27;96549.16;;;5.47;100.00
3697;BME280;60662;48.810;8.872;2023-12-14T11:20:26;96559.03;;;6.00;100.00
3697;BME280;60662;48.810;8.872;2023-12-14T11:28:27;96561.19;;;6.15;100.00
3697;BME280;60662;48.810;8.872;2023-12-14T11:32:40;96568.75;;;5.90;100.00
3697;BME280;60662;48.810;8.872;2023-12-14T11:33:41;96576.31;;;5.99;100.00
3697;BME280;60662;48.810;8.872;2023-12-14T11:34:48;96559.66;;;5.75;100.00
3697;BME280;60662;48.810;8.872;2023-12-14T11:35:50;96574.19;;;6.14;100.00
3697;BME280;60662;48.810;8.872;2023-12-14T11:36:56;96578.88;;;6.32;100.00
3697;BME280;60662;48.810;8.872;2023-12-14T11:37:58;96564.97;;;6.35;100.00
3697;BME280;60662;48.810;8.872;2023-12-14T11:42:59;96576.69;;;5.84;99.88
3697;BME280;60662;48.810;8.872;2023-12-14T11:44:00;96580.56;;;6.02;99.58
3697;BME280;60662;48.810;8.872;2023-12-14T11:45:02;96575.97;;;5.79;100.00
3697;BME280;60662;48.810;8.872;2023-12-14T11:46:04;96580.22;;;6.14;100.00
3697;BME280;60662;48.810;8.872;2023-12-14T11:55:52;96571.66;;;6.12;100.00
3697;BME280;60662;48.810;8.872;2023-12-14T11:56:54;96578.38;;;6.18;100.00
3697;BME280;60662;48.810;8.872;2023-12-14T11:57:56;96582.47;;;6.27;100.00
3697;BME280;60662;48.810;8.872;2023-12-14T11:58:57;96588.16;;;6.40;100.00
3697;BME280;60662;48.810;8.872;2023-12-14T11:59:59;96588.34;;;6.63;100.00
3697;BME280;60662;48.810;8.872;2023-12-14T12:01:14;96597.22;;;6.84;100.00
3697;BME280;60662;48.810;8.872;2023-12-14T12:02:23;96592.38;;;7.29;100.00
3697;BME280;60662;48.810;8.872;2023-12-14T12:03:25;96563.25;;;7.19;100.00
3697;BME280;60662;48.810;8.872;2023-12-14T12:04:27;96588.84;;;7.31;100.00
3697;BME280;60662;48.810;8.872;2023-12-14T12:05:42;96584.13;;;7.43;100.00
3697;BME280;60662;48.810;8.872;2023-12-14T12:06:44;96587.22;;;7.27;100.00
3697;BME280;60662;48.810;8.872;2023-12-14T12:07:46;96591.59;;;6.98;100.00
3697;BME280;60662;48.810;8.872;2023-12-14T12:08:47;96598.78;;;6.90;100.00
3697;BME280;60662;48.810;8.872;2023-12-14T12:09:49;96592.25;;;7.05;100.00
3697;BME280;60662;48.810;8.872;2023-12-14T12:18:37;96597.28;;;6.53;100.00
3697;BME280;60662;48.810;8.872;2023-12-14T12:19:41;96591.38;;;6.48;100.00
3697;BME280;60662;48.810;8.872;2023-12-14T12:45:29;96628.50;;;5.85;100.00
3697;BME280;60662;48.810;8.872;2023-12-14T12:52:51;96625.44;;;5.69;100.00
